createdAt,value
2023-05-27T00:00:41.237Z,11.10
2023-05-27T00:05:45.440Z,10.90
2023-05-27T00:10:49.543Z,10.80
2023-05-27T00:15:52.608Z,10.80
2023-05-27T00:20:56.766Z,10.80
2023-05-27T00:25:59.491Z,10.90
2023-05-27T00:31:02.629Z,10.90
2023-05-27T00:36:07.331Z,10.60
2023-05-27T00:41:13.336Z,10.50
2023-05-27T00:46:16.311Z,10.30
2023-05-27T00:51:20.433Z,10.20
2023-05-27T00:56:23.176Z,10.10
2023-05-27T01:01:27.048Z,10.00
2023-05-27T01:06:44.667Z,9.90
2023-05-27T01:11:53.285Z,9.70
2023-05-27T01:16:58.957Z,9.60
2023-05-27T01:22:03.826Z,9.50
2023-05-27T01:27:09.391Z,9.40
2023-05-27T01:32:16.889Z,9.40
2023-05-27T01:37:23.721Z,9.30
2023-05-27T01:42:28.236Z,9.30
2023-05-27T01:47:31.247Z,9.10
2023-05-27T01:52:34.067Z,9.00
2023-05-27T01:57:38.103Z,8.90
2023-05-27T02:02:41.311Z,8.80
2023-05-27T02:07:44.125Z,8.70
2023-05-27T02:12:48.852Z,8.60
2023-05-27T02:17:56.135Z,8.50
2023-05-27T02:22:58.915Z,8.50
2023-05-27T02:28:03.989Z,8.60
2023-05-27T02:33:06.865Z,8.50
2023-05-27T02:38:09.701Z,8.60
2023-05-27T02:43:13.837Z,8.50
2023-05-27T02:48:16.570Z,8.40
2023-05-27T02:53:19.342Z,8.30
2023-05-27T02:58:23.623Z,8.20
2023-05-27T03:03:26.455Z,8.20
2023-05-27T03:08:29.229Z,8.20
2023-05-27T03:13:33.331Z,8.20
2023-05-27T03:18:36.053Z,8.30
2023-05-27T03:23:38.930Z,8.40
2023-05-27T03:28:43.013Z,8.40
2023-05-27T03:33:45.796Z,8.40
2023-05-27T03:38:48.710Z,8.30
2023-05-27T03:43:52.734Z,8.30
2023-05-27T03:48:55.760Z,8.40
2023-05-27T03:53:58.441Z,8.40
2023-05-27T03:59:02.906Z,8.50
2023-05-27T04:04:06.235Z,8.60
2023-05-27T04:09:09.033Z,8.70
2023-05-27T04:14:13.172Z,8.90
2023-05-27T04:19:15.975Z,9.00
2023-05-27T04:24:18.700Z,9.20
2023-05-27T04:29:26.077Z,9.50
2023-05-27T04:34:28.829Z,9.70
2023-05-27T04:39:31.882Z,9.80
2023-05-27T04:44:36.256Z,10.00
2023-05-27T04:49:39.064Z,10.40
2023-05-27T04:54:41.847Z,10.70
2023-05-27T05:00:00.346Z,10.90
2023-05-27T05:05:03.965Z,11.20
2023-05-27T05:10:08.242Z,11.30
2023-05-27T05:15:12.423Z,11.60
2023-05-27T05:20:15.220Z,11.80
2023-05-27T05:25:17.968Z,12.00
2023-05-27T05:30:21.983Z,12.40
2023-05-27T05:35:24.696Z,12.70
2023-05-27T05:40:27.513Z,12.90
2023-05-27T05:45:32.372Z,13.20
2023-05-27T05:50:35.058Z,13.40
2023-05-27T05:55:38.252Z,13.60
2023-05-27T06:00:42.337Z,13.90
2023-05-27T06:05:45.076Z,14.20
2023-05-27T06:10:47.949Z,14.30
2023-05-27T06:15:52.253Z,14.50
2023-05-27T06:20:55.002Z,14.60
2023-05-27T06:25:57.715Z,14.90
2023-05-27T06:31:01.852Z,15.00
2023-05-27T06:36:04.814Z,15.10
2023-05-27T06:41:07.715Z,15.30
2023-05-27T06:46:11.790Z,15.40
2023-05-27T06:51:38.564Z,15.70
2023-05-27T06:56:41.497Z,16.00
2023-05-27T07:01:45.841Z,16.10
2023-05-27T07:06:48.678Z,16.30
2023-05-27T07:11:51.679Z,16.20
2023-05-27T07:16:56.763Z,16.30
2023-05-27T07:21:59.572Z,16.60
2023-05-27T07:27:02.523Z,16.50
2023-05-27T07:32:07.021Z,16.70
2023-05-27T07:37:09.737Z,17.00
2023-05-27T07:42:12.547Z,17.00
2023-05-27T07:47:16.573Z,17.10
2023-05-27T07:52:19.473Z,17.30
2023-05-27T07:57:22.266Z,17.60
2023-05-27T08:02:26.506Z,17.80
2023-05-27T08:07:29.324Z,17.90
2023-05-27T08:12:32.080Z,18.20
2023-05-27T08:17:36.235Z,18.60
2023-05-27T08:22:39.318Z,18.80
2023-05-27T08:27:46.624Z,18.80
2023-05-27T08:32:52.575Z,19.00
2023-05-27T08:37:55.606Z,19.00
2023-05-27T08:42:58.432Z,19.50
2023-05-27T08:48:03.187Z,19.50
2023-05-27T08:53:06.213Z,19.90
2023-05-27T08:58:09.717Z,20.20
2023-05-27T09:03:14.319Z,20.60
2023-05-27T09:08:20.225Z,23.00
2023-05-27T09:13:29.697Z,25.60
2023-05-27T09:18:35.250Z,27.70
2023-05-27T09:23:39.778Z,29.70
2023-05-27T09:28:42.560Z,28.50
2023-05-27T09:33:46.645Z,29.40
2023-05-27T09:38:49.672Z,31.70
2023-05-27T09:43:56.130Z,33.00
2023-05-27T09:49:00.751Z,34.10
2023-05-27T09:54:03.719Z,35.20
2023-05-27T09:59:08.302Z,34.10
2023-05-27T10:04:14.074Z,37.20
2023-05-27T10:09:18.143Z,36.80
2023-05-27T10:14:21.078Z,37.10
2023-05-27T10:19:25.133Z,36.80
2023-05-27T10:24:34.790Z,38.30
2023-05-27T10:29:39.017Z,40.50
2023-05-27T10:34:47.796Z,41.00
2023-05-27T10:39:57.577Z,42.40
2023-05-27T10:45:08.440Z,43.70
2023-05-27T10:50:16.061Z,44.50
2023-05-27T10:55:22.093Z,43.80
2023-05-27T11:00:29.078Z,43.00
2023-05-27T11:05:33.359Z,43.80
2023-05-27T11:10:36.412Z,44.40
2023-05-27T11:15:42.931Z,45.70
2023-05-27T11:20:49.448Z,44.60
2023-05-27T11:25:52.670Z,44.30
2023-05-27T11:31:00.388Z,44.10
2023-05-27T11:36:09.302Z,44.50
2023-05-27T11:41:12.042Z,44.10
2023-05-27T11:46:14.842Z,43.70
2023-05-27T11:51:19.020Z,42.80
2023-05-27T11:56:22.683Z,43.20
2023-05-27T12:01:26.296Z,43.50
2023-05-27T12:06:30.418Z,44.10
2023-05-27T12:11:33.431Z,43.70
2023-05-27T12:16:36.191Z,44.20
2023-05-27T12:21:40.691Z,43.50
2023-05-27T12:26:43.416Z,43.00
2023-05-27T12:31:46.541Z,41.50
2023-05-27T12:36:50.617Z,41.70
2023-05-27T12:41:54.116Z,42.40
2023-05-27T12:46:56.812Z,43.10
2023-05-27T12:52:01.142Z,43.50
2023-05-27T12:57:06.033Z,43.30
2023-05-27T13:02:08.751Z,43.50
2023-05-27T13:07:13.330Z,41.90
2023-05-27T13:12:16.036Z,42.00
2023-05-27T13:17:19.239Z,42.00
2023-05-27T13:22:23.635Z,42.60
2023-05-27T13:27:26.701Z,41.60
2023-05-27T13:32:29.456Z,41.30
2023-05-27T13:37:33.518Z,41.20
2023-05-27T13:42:36.319Z,38.10
2023-05-27T13:47:41.879Z,36.60
2023-05-27T13:52:47.000Z,36.70
2023-05-27T13:57:49.765Z,36.00
2023-05-27T14:02:52.699Z,36.60
2023-05-27T14:07:59.629Z,35.30
2023-05-27T14:13:04.519Z,36.10
2023-05-27T14:18:07.466Z,37.70
2023-05-27T14:23:13.719Z,38.30
2023-05-27T14:28:16.469Z,38.50
2023-05-27T14:33:19.302Z,36.50
2023-05-27T14:38:23.569Z,35.80
2023-05-27T14:43:26.351Z,37.00
2023-05-27T14:48:30.210Z,36.00
2023-05-27T14:53:34.254Z,34.90
2023-05-27T14:58:37.005Z,35.50
2023-05-27T15:03:39.871Z,35.70
2023-05-27T15:08:43.965Z,36.50
2023-05-27T15:13:46.700Z,36.50
2023-05-27T15:18:49.548Z,36.10
2023-05-27T15:23:56.106Z,36.00
2023-05-27T15:28:58.803Z,34.20
2023-05-27T15:34:01.588Z,31.20
2023-05-27T15:39:07.125Z,29.20
2023-05-27T15:44:09.826Z,29.10
2023-05-27T15:49:15.851Z,29.50
2023-05-27T15:54:19.904Z,30.50
2023-05-27T15:59:22.781Z,31.90
2023-05-27T16:04:25.580Z,32.30
2023-05-27T16:09:29.636Z,32.00
2023-05-27T16:14:32.374Z,32.00
2023-05-27T16:19:35.284Z,31.00
2023-05-27T16:24:39.383Z,29.40
2023-05-27T16:29:42.319Z,29.30
2023-05-27T16:34:45.083Z,29.30
2023-05-27T16:39:49.174Z,29.40
2023-05-27T16:44:52.046Z,30.10
2023-05-27T16:49:54.780Z,30.20
2023-05-27T16:55:00.152Z,30.30
2023-05-27T17:00:03.882Z,29.40
2023-05-27T17:05:07.401Z,29.20
2023-05-27T17:10:12.706Z,29.00
2023-05-27T17:15:16.065Z,29.00
2023-05-27T17:20:20.022Z,28.60
2023-05-27T17:25:24.295Z,28.20
2023-05-27T17:30:27.204Z,27.80
2023-05-27T17:35:29.944Z,27.30
2023-05-27T17:40:33.997Z,26.90
2023-05-27T17:45:37.482Z,26.60
2023-05-27T17:50:40.328Z,26.10
2023-05-27T17:55:44.572Z,25.80
2023-05-27T18:00:48.863Z,25.40
2023-05-27T18:05:51.901Z,25.10
2023-05-27T18:10:55.980Z,24.70
2023-05-27T18:15:58.752Z,24.20
2023-05-27T18:21:01.519Z,23.80
2023-05-27T18:26:05.681Z,23.30
2023-05-27T18:31:08.458Z,22.80
2023-05-27T18:36:11.632Z,22.30
2023-05-27T18:41:15.717Z,21.90
2023-05-27T18:46:18.893Z,21.40
2023-05-27T18:51:22.699Z,20.90
2023-05-27T18:56:27.752Z,20.30
2023-05-27T19:01:31.505Z,19.80
2023-05-27T19:06:34.672Z,19.50
2023-05-27T19:11:39.068Z,19.30
2023-05-27T19:16:41.850Z,18.90
2023-05-27T19:21:44.618Z,18.70
2023-05-27T19:26:48.735Z,18.40
2023-05-27T19:31:51.492Z,18.20
2023-05-27T19:36:54.264Z,18.10
2023-05-27T19:41:58.274Z,18.00
2023-05-27T19:47:01.912Z,17.70
2023-05-27T19:52:06.098Z,17.50
2023-05-27T19:57:10.712Z,17.50
2023-05-27T20:02:13.652Z,17.40
2023-05-27T20:07:16.384Z,17.20
2023-05-27T20:12:37.522Z,17.10
2023-05-27T20:17:40.987Z,16.90
2023-05-27T20:22:43.801Z,16.80
2023-05-27T20:27:47.886Z,17.00
2023-05-27T20:32:50.876Z,17.00
2023-05-27T20:37:53.601Z,16.70
2023-05-27T20:42:57.672Z,16.40
2023-05-27T20:48:00.449Z,16.30
2023-05-27T20:53:07.327Z,16.10
2023-05-27T20:58:11.477Z,16.30
2023-05-27T21:03:14.389Z,16.50
2023-05-27T21:08:17.526Z,16.20
2023-05-27T21:13:21.558Z,16.00
2023-05-27T21:18:24.295Z,15.90
2023-05-27T21:23:27.053Z,15.70
2023-05-27T21:28:31.524Z,15.70
2023-05-27T21:33:34.293Z,15.60
2023-05-27T21:38:37.107Z,15.40
2023-05-27T21:43:41.233Z,15.20
2023-05-27T21:48:44.472Z,15.10
2023-05-27T21:53:47.622Z,15.00
2023-05-27T21:58:51.675Z,14.80
2023-05-27T22:03:54.473Z,14.70
2023-05-27T22:08:57.274Z,14.50
2023-05-27T22:14:01.517Z,14.30
2023-05-27T22:19:04.248Z,14.20
2023-05-27T22:24:07.230Z,14.20
2023-05-27T22:29:11.303Z,13.90
2023-05-27T22:34:14.028Z,13.80
2023-05-27T22:39:16.890Z,13.60
2023-05-27T22:44:21.718Z,13.40
2023-05-27T22:49:24.533Z,13.20
2023-05-27T22:54:27.237Z,13.10
2023-05-27T22:59:31.280Z,12.90
2023-05-27T23:04:34.036Z,12.50
2023-05-27T23:09:36.720Z,12.40
2023-05-27T23:14:40.747Z,12.30
2023-05-27T23:25:17.653Z,11.60
2023-05-27T23:30:48.482Z,11.50
2023-05-27T23:35:59.017Z,11.30
2023-05-27T23:46:46.764Z,11.40
2023-05-27T23:52:06.212Z,11.60
2023-05-27T23:57:13.807Z,11.80
